createdAt,value
2019-02-14T00:00:04.576Z,33.57
2019-02-14T00:02:52.079Z,29.27
2019-02-14T00:05:37.701Z,27.60
2019-02-14T00:08:23.548Z,25.83
2019-02-14T00:11:08.888Z,25.10
2019-02-14T00:13:54.273Z,28.77
2019-02-14T00:16:40.943Z,25.00
2019-02-14T00:19:26.714Z,25.37
2019-02-14T00:22:12.380Z,24.40
2019-02-14T00:24:58.284Z,30.30
2019-02-14T00:27:43.636Z,24.10
2019-02-14T00:30:29.514Z,24.07
2019-02-14T00:33:14.806Z,25.57
2019-02-14T00:36:00.187Z,24.83
2019-02-14T00:38:45.905Z,25.47
2019-02-14T00:41:31.589Z,23.33
2019-02-14T00:44:20.428Z,28.87
2019-02-14T00:47:06.113Z,24.63
2019-02-14T00:49:51.476Z,29.90
2019-02-14T00:52:36.948Z,25.10
2019-02-14T00:55:22.852Z,23.93
2019-02-14T00:58:08.482Z,22.70
2019-02-14T01:00:53.722Z,26.70
2019-02-14T01:03:39.512Z,24.13
2019-02-14T01:06:25.345Z,24.33
2019-02-14T01:09:10.832Z,24.20
2019-02-14T01:11:56.636Z,26.13
2019-02-14T01:14:42.034Z,62.90
2019-02-14T01:17:27.297Z,43.30
2019-02-14T01:20:12.917Z,45.60
2019-02-14T01:22:58.869Z,32.37
2019-02-14T01:25:44.251Z,33.33
2019-02-14T01:28:30.177Z,39.87
2019-02-14T01:31:16.449Z,43.90
2019-02-14T01:34:01.797Z,40.33
2019-02-14T01:36:48.641Z,32.67
2019-02-14T01:39:37.149Z,36.20
2019-02-14T01:42:22.575Z,32.13
2019-02-14T01:45:09.341Z,26.97
2019-02-14T01:47:55.123Z,28.83
2019-02-14T01:50:40.397Z,29.60
2019-02-14T01:53:26.342Z,30.27
2019-02-14T01:56:11.694Z,28.53
2019-02-14T01:58:57.168Z,26.70
2019-02-14T02:01:43.952Z,29.90
2019-02-14T02:04:29.645Z,29.17
2019-02-14T02:07:15.052Z,24.13
2019-02-14T02:10:03.138Z,26.70
2019-02-14T02:12:48.741Z,28.00
2019-02-14T02:15:34.465Z,22.83
2019-02-14T02:18:20.805Z,23.50
2019-02-14T02:21:06.385Z,21.20
2019-02-14T02:23:51.718Z,25.33
2019-02-14T02:26:37.385Z,22.03
2019-02-14T02:29:22.813Z,20.23
2019-02-14T02:32:08.175Z,18.60
2019-02-14T02:34:53.984Z,18.90
2019-02-14T02:37:39.914Z,18.37
2019-02-14T02:40:25.229Z,22.67
2019-02-14T02:43:11.117Z,21.73
2019-02-14T02:45:56.405Z,20.83
2019-02-14T02:48:41.823Z,22.40
2019-02-14T02:51:27.397Z,21.83
2019-02-14T02:54:13.337Z,20.70
2019-02-14T02:56:58.802Z,19.27
2019-02-14T02:59:44.493Z,19.93
2019-02-14T03:02:30.417Z,18.57
2019-02-14T03:05:15.883Z,17.27
2019-02-14T03:08:01.489Z,22.83
2019-02-14T03:10:47.478Z,19.77
2019-02-14T03:13:32.817Z,20.57
2019-02-14T03:16:18.637Z,22.47
2019-02-14T03:19:03.953Z,19.17
2019-02-14T03:21:49.360Z,24.60
2019-02-14T03:24:35.187Z,21.97
2019-02-14T03:27:20.945Z,22.13
2019-02-14T03:30:06.701Z,27.90
2019-02-14T03:32:52.516Z,28.23
2019-02-14T03:35:37.886Z,20.53
2019-02-14T03:38:23.344Z,18.20
2019-02-14T03:41:08.931Z,22.70
2019-02-14T03:43:55.010Z,20.67
2019-02-14T03:46:40.321Z,24.23
2019-02-14T03:49:25.998Z,23.97
2019-02-14T03:52:11.466Z,19.37
2019-02-14T03:54:56.861Z,20.63
2019-02-14T03:57:42.514Z,18.97
2019-02-14T04:00:28.147Z,24.27
2019-02-14T04:03:13.441Z,22.20
2019-02-14T04:05:59.477Z,20.67
2019-02-14T04:08:44.786Z,20.60
2019-02-14T04:11:30.182Z,18.27
2019-02-14T04:14:15.778Z,19.07
2019-02-14T04:17:03.743Z,16.97
2019-02-14T04:19:49.510Z,20.87
2019-02-14T04:22:35.173Z,18.10
2019-02-14T04:25:20.613Z,13.90
2019-02-14T04:28:06.148Z,15.23
2019-02-14T04:30:53.750Z,20.53
2019-02-14T04:33:39.914Z,19.83
2019-02-14T04:36:25.233Z,20.43
2019-02-14T04:39:10.820Z,17.97
2019-02-14T04:41:56.259Z,19.43
2019-02-14T04:44:41.661Z,20.50
2019-02-14T04:47:27.020Z,19.73
2019-02-14T04:50:12.257Z,22.03
2019-02-14T04:52:57.630Z,20.73
2019-02-14T04:55:43.388Z,22.40
2019-02-14T04:58:28.796Z,19.63
2019-02-14T05:01:14.190Z,19.90
2019-02-14T05:03:59.806Z,21.07
2019-02-14T05:06:46.098Z,25.87
2019-02-14T05:09:31.451Z,21.57
2019-02-14T05:12:16.774Z,18.13
2019-02-14T05:15:02.163Z,15.43
2019-02-14T05:17:48.395Z,18.80
2019-02-14T05:20:33.707Z,20.87
2019-02-14T05:23:19.450Z,23.23
2019-02-14T05:26:04.823Z,22.33
2019-02-14T05:28:50.218Z,19.90
2019-02-14T05:31:37.571Z,23.70
2019-02-14T05:34:23.518Z,20.53
2019-02-14T05:37:08.927Z,22.70
2019-02-14T05:39:54.602Z,24.03
2019-02-14T05:42:39.963Z,20.40
2019-02-14T05:45:25.609Z,24.27
2019-02-14T05:48:11.510Z,26.63
2019-02-14T05:50:56.943Z,24.87
2019-02-14T05:53:42.358Z,25.87
2019-02-14T05:56:28.178Z,26.47
2019-02-14T05:59:13.597Z,24.70
2019-02-14T06:02:01.402Z,21.93
2019-02-14T06:04:47.743Z,24.43
2019-02-14T06:07:33.438Z,22.07
2019-02-14T06:10:18.761Z,25.43
2019-02-14T06:13:05.129Z,24.07
2019-02-14T06:15:50.449Z,24.67
2019-02-14T06:18:41.862Z,22.10
2019-02-14T06:21:33.362Z,22.60
2019-02-14T06:24:19.103Z,24.00
2019-02-14T06:27:04.476Z,27.40
2019-02-14T06:29:52.999Z,24.17
2019-02-14T06:32:38.392Z,23.73
2019-02-14T06:35:23.739Z,23.93
2019-02-14T06:38:09.123Z,24.13
2019-02-14T06:40:54.646Z,30.23
2019-02-14T06:43:39.996Z,26.87
2019-02-14T06:46:25.818Z,26.27
2019-02-14T06:49:11.201Z,28.40
2019-02-14T06:51:56.631Z,27.27
2019-02-14T06:54:42.067Z,25.10
2019-02-14T06:57:27.534Z,27.73
2019-02-14T07:00:13.944Z,27.83
2019-02-14T07:02:59.314Z,27.97
2019-02-14T07:05:44.771Z,29.50
2019-02-14T07:08:30.564Z,30.83
2019-02-14T07:11:16.340Z,29.83
2019-02-14T07:14:01.971Z,31.13
2019-02-14T07:16:47.349Z,31.57
2019-02-14T07:19:33.394Z,28.53
2019-02-14T07:22:18.790Z,30.07
2019-02-14T07:25:04.550Z,34.93
2019-02-14T07:27:50.647Z,27.60
2019-02-14T07:30:36.013Z,24.70
2019-02-14T07:33:21.391Z,14.03
2019-02-14T07:36:07.122Z,11.10
2019-02-14T07:38:52.462Z,11.50
2019-02-14T07:41:37.906Z,10.87
2019-02-14T07:44:23.741Z,12.63
2019-02-14T07:47:09.153Z,7.40
2019-02-14T07:49:54.621Z,10.97
2019-02-14T07:52:40.194Z,15.07
2019-02-14T07:55:25.587Z,8.30
2019-02-14T07:58:11.034Z,15.43
2019-02-14T08:00:57.050Z,12.00
2019-02-14T08:03:42.794Z,11.00
2019-02-14T08:06:28.138Z,10.37
2019-02-14T08:09:13.731Z,7.10
2019-02-14T08:11:59.056Z,9.87
2019-02-14T08:14:44.846Z,8.43
2019-02-14T08:17:30.810Z,9.67
2019-02-14T08:20:16.219Z,11.83
2019-02-14T08:23:02.074Z,11.30
2019-02-14T08:25:47.682Z,9.83
2019-02-14T08:28:33.477Z,11.60
2019-02-14T08:31:19.031Z,10.97
2019-02-14T08:34:04.330Z,8.00
2019-02-14T08:36:49.968Z,7.80
2019-02-14T08:39:35.436Z,9.90
2019-02-14T08:42:21.066Z,6.67
2019-02-14T08:45:07.902Z,7.30
2019-02-14T08:47:53.511Z,6.87
2019-02-14T08:50:38.940Z,12.43
2019-02-14T08:53:24.310Z,9.47
2019-02-14T08:56:09.707Z,8.67
2019-02-14T08:58:55.262Z,6.90
2019-02-14T09:01:41.482Z,5.80
2019-02-14T09:04:29.898Z,5.53
2019-02-14T09:07:15.334Z,5.93
2019-02-14T09:10:01.143Z,4.97
2019-02-14T09:12:46.552Z,8.00
2019-02-14T09:15:31.967Z,6.30
2019-02-14T09:18:17.635Z,5.30
2019-02-14T09:21:03.190Z,5.97
2019-02-14T09:23:48.523Z,8.03
2019-02-14T09:26:34.263Z,5.60
2019-02-14T09:29:19.887Z,7.67
2019-02-14T09:32:05.486Z,6.33
2019-02-14T09:34:50.865Z,6.30
2019-02-14T09:37:36.292Z,4.13
2019-02-14T09:40:21.678Z,5.73
2019-02-14T09:43:07.023Z,4.57
2019-02-14T09:45:52.819Z,3.87
2019-02-14T09:48:38.378Z,4.80
2019-02-14T09:51:23.673Z,7.17
2019-02-14T09:54:09.093Z,5.53
2019-02-14T09:56:54.402Z,4.37
2019-02-14T09:59:40.230Z,6.50
2019-02-14T10:02:25.939Z,7.07
2019-02-14T10:05:11.662Z,5.00
2019-02-14T10:07:57.037Z,6.17
2019-02-14T10:10:42.575Z,9.70
2019-02-14T10:13:28.390Z,9.43
2019-02-14T10:16:13.762Z,12.10
2019-02-14T10:18:59.079Z,11.10
2019-02-14T10:21:44.587Z,5.60
2019-02-14T10:24:30.348Z,6.40
2019-02-14T10:27:15.731Z,4.33
2019-02-14T10:30:01.142Z,5.00
2019-02-14T10:32:46.483Z,4.97
2019-02-14T10:35:31.962Z,3.60
2019-02-14T10:38:22.324Z,2.90
2019-02-14T10:41:04.815Z,3.73
2019-02-14T10:43:50.338Z,4.00
2019-02-14T10:46:36.112Z,5.60
2019-02-14T10:49:21.555Z,2.97
2019-02-14T10:52:06.989Z,2.00
2019-02-14T10:54:52.703Z,2.90
2019-02-14T10:57:38.375Z,2.40
2019-02-14T11:00:23.897Z,4.37
2019-02-14T11:03:09.591Z,3.40
2019-02-14T11:05:54.931Z,3.03
2019-02-14T11:08:41.313Z,2.80
2019-02-14T11:11:26.871Z,2.27
2019-02-14T11:14:12.175Z,2.17
2019-02-14T11:16:57.655Z,2.10
2019-02-14T11:19:42.935Z,2.57
2019-02-14T11:22:28.344Z,1.90
2019-02-14T11:25:18.763Z,1.77
2019-02-14T11:28:05.035Z,3.23
2019-02-14T11:30:51.504Z,1.90
2019-02-14T11:33:37.252Z,1.60
2019-02-14T11:36:22.571Z,2.03
2019-02-14T11:39:09.180Z,1.73
2019-02-14T11:41:54.856Z,2.10
2019-02-14T11:44:40.284Z,1.80
2019-02-14T11:47:26.036Z,1.27
2019-02-14T11:50:11.575Z,2.00
2019-02-14T11:52:57.257Z,1.70
2019-02-14T11:55:42.752Z,2.33
2019-02-14T11:58:28.031Z,1.60
2019-02-14T12:01:13.540Z,1.70
2019-02-14T12:03:58.854Z,1.57
2019-02-14T12:06:44.710Z,1.83
2019-02-14T12:09:30.120Z,1.97
2019-02-14T12:12:15.924Z,1.50
2019-02-14T12:15:01.324Z,1.90
2019-02-14T12:17:46.887Z,1.93
2019-02-14T12:20:32.699Z,3.40
2019-02-14T12:23:18.040Z,2.73
2019-02-14T12:26:05.593Z,2.80
2019-02-14T12:28:51.056Z,3.20
2019-02-14T12:31:36.732Z,4.23
2019-02-14T12:34:22.163Z,4.10
2019-02-14T12:37:12.357Z,3.40
2019-02-14T12:39:58.435Z,4.17
2019-02-14T12:42:44.344Z,3.73
2019-02-14T12:45:29.751Z,4.07
2019-02-14T12:48:16.168Z,4.00
2019-02-14T12:51:01.508Z,4.60
2019-02-14T12:53:46.914Z,4.33
2019-02-14T12:56:32.351Z,3.80
2019-02-14T12:59:17.767Z,7.47
2019-02-14T13:02:03.126Z,4.37
2019-02-14T13:04:48.462Z,4.47
2019-02-14T13:07:34.514Z,4.53
2019-02-14T13:10:22.387Z,4.80
2019-02-14T13:13:08.818Z,4.10
2019-02-14T13:15:54.480Z,4.00
2019-02-14T13:18:39.810Z,3.40
2019-02-14T13:21:25.290Z,2.80
2019-02-14T13:24:12.119Z,3.00
2019-02-14T13:26:57.642Z,3.03
2019-02-14T13:29:43.518Z,2.43
2019-02-14T13:32:29.386Z,2.60
2019-02-14T13:35:14.861Z,2.37
2019-02-14T13:38:00.550Z,4.93
2019-02-14T13:40:46.098Z,5.90
2019-02-14T13:43:31.886Z,3.00
2019-02-14T13:46:17.597Z,3.03
2019-02-14T13:49:03.206Z,3.93
2019-02-14T13:51:48.615Z,2.43
2019-02-14T13:54:33.983Z,1.80
2019-02-14T13:57:19.444Z,1.93
2019-02-14T14:00:07.793Z,2.63
2019-02-14T14:02:53.284Z,2.20
2019-02-14T14:05:39.030Z,2.40
2019-02-14T14:08:24.414Z,3.57
2019-02-14T14:11:09.841Z,2.83
2019-02-14T14:13:55.715Z,2.60
2019-02-14T14:16:41.080Z,2.20
2019-02-14T14:19:28.928Z,2.60
2019-02-14T14:22:14.158Z,2.90
2019-02-14T14:24:59.781Z,1.87
2019-02-14T14:27:45.120Z,1.70
2019-02-14T14:30:30.907Z,2.30
2019-02-14T14:33:16.549Z,2.00
2019-02-14T14:36:01.901Z,1.90
2019-02-14T14:38:47.805Z,1.90
2019-02-14T14:41:33.633Z,2.13
2019-02-14T14:44:28.485Z,1.70
2019-02-14T14:47:16.674Z,1.60
2019-02-14T14:50:02.262Z,2.03
2019-02-14T14:52:48.138Z,1.80
2019-02-14T14:55:35.463Z,3.53
2019-02-14T14:58:21.173Z,3.33
2019-02-14T15:01:06.531Z,2.13
2019-02-14T15:03:52.346Z,3.00
2019-02-14T15:06:38.229Z,2.20
2019-02-14T15:09:23.634Z,2.20
2019-02-14T15:12:10.374Z,2.23
2019-02-14T15:14:56.530Z,2.60
2019-02-14T15:17:41.966Z,2.10
2019-02-14T15:20:29.868Z,2.40
2019-02-14T15:23:15.608Z,2.60
2019-02-14T15:26:00.998Z,3.93
2019-02-14T15:28:46.402Z,2.43
2019-02-14T15:31:31.766Z,5.60
2019-02-14T15:34:17.080Z,4.10
2019-02-14T15:37:02.680Z,5.13
2019-02-14T15:39:49.276Z,2.80
2019-02-14T15:42:34.942Z,2.00
2019-02-14T15:45:20.267Z,4.03
2019-02-14T15:48:05.689Z,4.17
2019-02-14T15:50:51.840Z,3.60
2019-02-14T15:53:41.162Z,2.63
2019-02-14T15:56:27.344Z,2.07
2019-02-14T15:59:14.054Z,2.83
2019-02-14T16:01:59.414Z,3.13
2019-02-14T16:04:45.988Z,3.23
2019-02-14T16:07:32.299Z,2.43
2019-02-14T16:10:18.893Z,2.70
2019-02-14T16:13:05.816Z,3.37
2019-02-14T16:15:58.841Z,3.17
2019-02-14T16:18:46.563Z,5.57
2019-02-14T16:21:32.402Z,4.80
2019-02-14T16:24:18.558Z,18.17
2019-02-14T16:27:04.515Z,4.23
2019-02-14T16:29:50.923Z,7.23
2019-02-14T16:32:36.834Z,6.20
2019-02-14T16:35:23.857Z,7.33
2019-02-14T16:38:11.795Z,7.20
2019-02-14T16:40:57.413Z,7.30
2019-02-14T16:43:42.875Z,7.73
2019-02-14T16:46:28.662Z,8.87
2019-02-14T16:49:14.155Z,9.47
2019-02-14T16:51:59.597Z,9.40
2019-02-14T16:54:44.940Z,11.40
2019-02-14T16:57:30.375Z,10.40
2019-02-14T17:00:16.134Z,12.90
2019-02-14T17:03:01.583Z,23.53
2019-02-14T17:05:47.025Z,14.30
2019-02-14T17:08:33.201Z,16.97
2019-02-14T17:11:18.879Z,10.23
2019-02-14T17:14:07.209Z,15.97
2019-02-14T17:16:54.193Z,8.20
2019-02-14T17:19:39.785Z,16.07
2019-02-14T17:22:27.611Z,7.53
2019-02-14T17:25:13.167Z,12.90
2019-02-14T17:27:58.555Z,14.93
2019-02-14T17:30:43.815Z,28.93
2019-02-14T17:33:29.370Z,21.07
2019-02-14T17:36:14.643Z,12.73
2019-02-14T17:39:04.734Z,20.23
2019-02-14T17:41:50.495Z,15.67
2019-02-14T17:44:36.271Z,19.20
2019-02-14T17:47:21.655Z,15.50
2019-02-14T17:50:07.807Z,13.70
2019-02-14T17:52:53.667Z,17.93
2019-02-14T17:55:40.347Z,16.57
2019-02-14T17:58:26.583Z,17.83
2019-02-14T18:01:12.012Z,15.23
2019-02-14T18:03:57.935Z,18.57
2019-02-14T18:06:43.894Z,19.67
2019-02-14T18:09:29.295Z,18.57
2019-02-14T18:12:14.683Z,19.93
2019-02-14T18:15:00.491Z,20.63
2019-02-14T18:17:46.008Z,20.33
2019-02-14T18:20:31.327Z,24.77
2019-02-14T18:23:17.005Z,24.20
2019-02-14T18:26:02.310Z,24.87
2019-02-14T18:28:47.759Z,23.93
2019-02-14T18:31:33.223Z,21.20
2019-02-14T18:34:19.091Z,21.70
2019-02-14T18:37:04.425Z,23.87
2019-02-14T18:39:52.052Z,23.83
2019-02-14T18:42:38.547Z,54.57
2019-02-14T18:45:24.131Z,24.67
2019-02-14T18:48:10.932Z,28.03
2019-02-14T18:50:57.603Z,22.77
2019-02-14T18:53:43.447Z,22.30
2019-02-14T18:56:28.871Z,19.23
2019-02-14T18:59:14.207Z,26.73
2019-02-14T19:01:59.794Z,24.17
2019-02-14T19:04:45.825Z,20.17
2019-02-14T19:07:31.733Z,23.93
2019-02-14T19:10:17.150Z,18.63
2019-02-14T19:13:03.521Z,24.37
2019-02-14T19:15:49.342Z,20.90
2019-02-14T19:18:35.871Z,20.23
2019-02-14T19:21:21.755Z,20.73
2019-02-14T19:24:07.863Z,18.97
2019-02-14T19:26:53.211Z,20.00
2019-02-14T19:29:38.788Z,18.10
2019-02-14T19:32:24.176Z,18.07
2019-02-14T19:35:09.648Z,20.67
2019-02-14T19:37:57.230Z,26.10
2019-02-14T19:40:42.880Z,21.47
2019-02-14T19:43:28.331Z,22.87
2019-02-14T19:46:14.348Z,24.63
2019-02-14T19:49:03.787Z,25.47
2019-02-14T19:51:49.107Z,22.87
2019-02-14T19:54:34.369Z,19.57
2019-02-14T19:57:20.203Z,21.33
2019-02-14T20:00:07.467Z,20.10
2019-02-14T20:02:54.884Z,22.03
2019-02-14T20:05:43.328Z,17.20
2019-02-14T20:08:28.985Z,23.30
2019-02-14T20:11:17.929Z,20.60
2019-02-14T20:14:04.030Z,21.10
2019-02-14T20:16:49.660Z,18.77
2019-02-14T20:19:35.564Z,22.87
2019-02-14T20:22:22.744Z,26.57
2019-02-14T20:25:09.906Z,26.20
2019-02-14T20:27:55.324Z,24.73
2019-02-14T20:30:48.123Z,21.37
2019-02-14T20:33:43.404Z,24.47
2019-02-14T20:36:35.124Z,22.17
2019-02-14T20:39:26.845Z,17.97
2019-02-14T20:42:17.505Z,17.97
2019-02-14T20:45:03.367Z,18.80
2019-02-14T20:47:48.716Z,20.80
2019-02-14T20:50:37.179Z,19.70
2019-02-14T20:53:22.706Z,26.57
2019-02-14T20:56:11.987Z,20.80
2019-02-14T20:58:58.078Z,19.87
2019-02-14T21:01:43.748Z,16.20
2019-02-14T21:04:29.640Z,17.63
2019-02-14T21:07:15.375Z,13.30
2019-02-14T21:10:01.406Z,13.33
2019-02-14T21:12:46.723Z,13.87
2019-02-14T21:22:17.761Z,11.20
2019-02-14T21:24:54.528Z,13.70
2019-02-14T21:27:40.163Z,13.40
2019-02-14T21:36:52.044Z,13.43
2019-02-14T21:39:37.478Z,11.27
2019-02-14T21:42:28.919Z,12.63
2019-02-14T21:45:11.164Z,12.43
2019-02-14T21:47:57.109Z,10.50
2019-02-14T21:50:43.009Z,12.90
2019-02-14T21:53:28.623Z,13.73
2019-02-14T21:56:14.146Z,13.20
2019-02-14T21:58:59.513Z,12.27
2019-02-14T22:01:44.861Z,10.93
2019-02-14T22:04:32.181Z,14.73
2019-02-14T22:09:58.996Z,17.07
2019-02-14T22:12:44.698Z,17.60
2019-02-14T22:15:30.875Z,19.80
2019-02-14T22:18:16.123Z,19.23
2019-02-14T22:21:01.968Z,19.13
2019-02-14T22:23:47.779Z,13.87
2019-02-14T22:26:34.151Z,13.50
2019-02-14T22:29:19.918Z,16.20
2019-02-14T22:32:05.282Z,11.30
2019-02-14T22:34:50.667Z,14.00
2019-02-14T22:37:37.392Z,14.00
2019-02-14T22:40:23.280Z,12.37
2019-02-14T22:43:11.294Z,14.17
2019-02-14T22:45:57.294Z,15.50
2019-02-14T22:48:44.001Z,13.23
2019-02-14T22:51:29.714Z,13.73
2019-02-14T22:54:15.454Z,12.53
2019-02-14T22:57:00.937Z,14.80
2019-02-14T22:59:46.469Z,14.83
2019-02-14T23:05:30.006Z,12.50
2019-02-14T23:08:16.325Z,12.80
2019-02-14T23:11:02.583Z,12.43
2019-02-14T23:13:48.650Z,12.37
2019-02-14T23:16:34.630Z,14.13
2019-02-14T23:19:26.852Z,17.63
2019-02-14T23:22:13.371Z,10.60
2019-02-14T23:24:59.637Z,12.93
2019-02-14T23:27:46.949Z,12.37
2019-02-14T23:30:33.051Z,11.27
2019-02-14T23:33:19.044Z,11.33
2019-02-14T23:36:08.716Z,20.93
2019-02-14T23:38:58.083Z,21.30
2019-02-14T23:41:44.404Z,23.20
2019-02-14T23:44:30.651Z,19.37
2019-02-14T23:47:16.806Z,24.53
2019-02-14T23:50:05.462Z,22.17
2019-02-14T23:52:51.826Z,17.93
2019-02-14T23:55:37.844Z,19.03
2019-02-14T23:58:23.937Z,18.23
